createdAt,value
2022-07-27T00:00:21.455Z,37.93
2022-07-27T00:03:27.880Z,37.95
2022-07-27T00:06:15.545Z,37.98
2022-07-27T00:08:47.311Z,38.00
2022-07-27T00:11:58.443Z,38.02
2022-07-27T00:14:36.295Z,38.03
2022-07-27T00:17:15.354Z,38.03
2022-07-27T00:19:31.633Z,38.00
2022-07-27T00:22:24.993Z,38.04
2022-07-27T00:25:11.113Z,38.05
2022-07-27T00:27:56.409Z,38.05
2022-07-27T00:30:03.469Z,38.06
2022-07-27T00:33:03.144Z,38.09
2022-07-27T00:36:00.738Z,38.11
2022-07-27T00:38:45.072Z,38.13
2022-07-27T00:42:02.103Z,38.13
2022-07-27T00:44:41.618Z,38.15
2022-07-27T00:47:21.208Z,38.16
2022-07-27T00:50:10.507Z,38.18
2022-07-27T00:52:57.559Z,38.17
2022-07-27T00:56:24.170Z,38.17
2022-07-27T00:59:33.956Z,38.19
2022-07-27T01:02:01.090Z,38.20
2022-07-27T01:04:53.726Z,38.19
2022-07-27T01:08:13.024Z,38.18
2022-07-27T01:11:07.262Z,38.16
2022-07-27T01:14:10.282Z,38.15
2022-07-27T01:17:26.392Z,38.12
2022-07-27T01:20:29.198Z,38.09
2022-07-27T01:23:37.000Z,38.07
2022-07-27T01:26:23.579Z,38.02
2022-07-27T01:29:32.731Z,38.01
2022-07-27T01:32:34.177Z,37.98
2022-07-27T01:35:11.367Z,37.94
2022-07-27T01:38:28.330Z,37.90
2022-07-27T01:40:55.547Z,37.84
2022-07-27T01:43:09.982Z,37.77
2022-07-27T01:45:38.062Z,37.69
2022-07-27T01:48:27.907Z,37.61
2022-07-27T01:50:47.687Z,37.51
2022-07-27T01:53:01.155Z,37.44
2022-07-27T01:56:10.206Z,37.36
2022-07-27T01:58:36.621Z,37.28
2022-07-27T02:00:49.860Z,37.20
2022-07-27T02:04:01.445Z,37.13
2022-07-27T02:07:20.079Z,37.06
2022-07-27T02:09:30.632Z,37.02
2022-07-27T02:12:21.200Z,36.99
2022-07-27T02:14:54.802Z,36.95
2022-07-27T02:17:22.302Z,36.90
2022-07-27T02:20:21.194Z,36.87
2022-07-27T02:23:07.795Z,36.84
2022-07-27T02:25:37.159Z,36.78
2022-07-27T02:28:23.110Z,36.76
2022-07-27T02:30:54.393Z,36.71
2022-07-27T02:33:12.913Z,36.67
2022-07-27T02:35:44.257Z,36.61
2022-07-27T02:38:26.945Z,36.56
2022-07-27T02:41:21.871Z,36.49
2022-07-27T02:44:12.038Z,36.45
2022-07-27T02:46:59.257Z,36.38
2022-07-27T02:49:49.850Z,36.31
2022-07-27T02:53:06.461Z,36.23
2022-07-27T02:55:34.971Z,36.14
2022-07-27T02:58:05.700Z,36.09
2022-07-27T03:01:03.827Z,36.04
2022-07-27T03:04:00.659Z,35.97
2022-07-27T03:06:41.284Z,35.94
2022-07-27T03:09:46.166Z,35.89
2022-07-27T03:12:39.174Z,35.81
2022-07-27T03:15:04.787Z,35.74
2022-07-27T03:17:30.901Z,35.65
2022-07-27T03:19:40.581Z,35.57
2022-07-27T03:22:17.370Z,35.48
2022-07-27T03:24:42.874Z,35.41
2022-07-27T03:26:56.453Z,35.33
2022-07-27T03:29:29.718Z,35.28
2022-07-27T03:31:59.360Z,35.23
2022-07-27T03:34:29.276Z,35.17
2022-07-27T03:37:02.369Z,35.12
2022-07-27T03:39:50.308Z,35.05
2022-07-27T03:42:00.075Z,34.98
2022-07-27T03:45:23.725Z,34.90
2022-07-27T03:48:02.359Z,34.76
2022-07-27T03:50:45.885Z,34.62
2022-07-27T03:53:30.056Z,34.52
2022-07-27T03:56:04.180Z,34.41
2022-07-27T03:58:18.069Z,34.32
2022-07-27T04:00:44.836Z,34.26
2022-07-27T04:03:07.742Z,34.18
2022-07-27T04:05:22.053Z,34.10
2022-07-27T04:07:48.833Z,34.05
2022-07-27T04:10:44.076Z,33.96
2022-07-27T04:13:04.454Z,33.88
2022-07-27T04:15:49.946Z,33.81
2022-07-27T04:18:44.846Z,33.72
2022-07-27T04:21:22.133Z,33.62
2022-07-27T04:24:16.340Z,33.52
2022-07-27T04:26:38.987Z,33.44
2022-07-27T04:29:29.781Z,33.35
2022-07-27T04:32:14.115Z,33.22
2022-07-27T04:34:54.395Z,33.13
2022-07-27T04:37:35.750Z,33.04
2022-07-27T04:40:09.154Z,32.95
2022-07-27T04:42:49.986Z,32.85
2022-07-27T04:46:16.855Z,32.72
2022-07-27T04:48:41.822Z,32.58
2022-07-27T04:51:29.001Z,32.47
2022-07-27T04:54:12.614Z,32.37
2022-07-27T04:57:08.250Z,32.26
2022-07-27T04:59:40.242Z,32.18
2022-07-27T05:02:13.625Z,32.08
2022-07-27T05:04:33.482Z,32.02
2022-07-27T05:07:16.818Z,31.97
2022-07-27T05:09:57.394Z,31.89
2022-07-27T05:12:53.612Z,31.83
2022-07-27T05:15:28.031Z,31.74
2022-07-27T05:18:25.560Z,31.68
2022-07-27T05:20:38.111Z,31.60
2022-07-27T05:23:27.577Z,31.50
2022-07-27T05:26:10.330Z,31.37
2022-07-27T05:29:16.557Z,31.28
2022-07-27T05:31:37.248Z,31.16
2022-07-27T05:33:58.381Z,31.07
2022-07-27T05:36:24.402Z,30.98
2022-07-27T05:39:13.234Z,30.87
2022-07-27T05:41:45.444Z,30.78
2022-07-27T05:44:11.739Z,30.68
2022-07-27T05:46:36.138Z,30.59
2022-07-27T05:49:13.538Z,30.51
2022-07-27T05:51:37.341Z,30.40
2022-07-27T05:54:17.555Z,30.32
2022-07-27T05:56:37.421Z,30.23
2022-07-27T05:59:37.365Z,30.12
2022-07-27T06:02:16.173Z,30.03
2022-07-27T06:05:14.860Z,29.95
2022-07-27T06:07:51.355Z,29.86
2022-07-27T06:10:18.882Z,29.77
2022-07-27T06:13:01.813Z,29.69
2022-07-27T06:15:25.521Z,29.62
2022-07-27T06:17:51.609Z,29.56
2022-07-27T06:20:01.603Z,29.50
2022-07-27T06:22:21.342Z,29.45
2022-07-27T06:24:31.318Z,29.40
2022-07-27T06:26:44.422Z,29.36
2022-07-27T06:29:00.173Z,29.33
2022-07-27T06:31:16.831Z,29.28
2022-07-27T06:34:12.743Z,29.23
2022-07-27T06:36:58.297Z,29.16
2022-07-27T06:39:16.006Z,29.08
2022-07-27T06:41:52.661Z,29.00
2022-07-27T06:44:39.015Z,28.90
2022-07-27T06:46:59.756Z,28.81
2022-07-27T06:49:09.407Z,28.73
2022-07-27T06:51:39.615Z,28.65
2022-07-27T06:54:18.571Z,28.56
2022-07-27T06:56:47.732Z,28.47
2022-07-27T06:59:43.379Z,28.40
2022-07-27T07:02:14.970Z,28.33
2022-07-27T07:04:54.553Z,28.26
2022-07-27T07:07:38.861Z,28.21
2022-07-27T07:10:06.558Z,28.15
2022-07-27T07:12:34.483Z,28.10
2022-07-27T07:15:08.721Z,28.04
2022-07-27T07:18:06.963Z,27.98
2022-07-27T07:20:51.643Z,27.91
2022-07-27T07:23:13.015Z,27.83
2022-07-27T07:25:49.633Z,27.76
2022-07-27T07:27:59.837Z,27.70
2022-07-27T07:30:47.414Z,27.63
2022-07-27T07:33:28.085Z,27.55
2022-07-27T07:36:19.480Z,27.46
2022-07-27T07:39:13.886Z,27.37
2022-07-27T07:42:02.449Z,27.32
2022-07-27T07:44:39.413Z,27.28
2022-07-27T07:47:01.923Z,27.23
2022-07-27T07:49:51.222Z,27.19
2022-07-27T07:52:30.677Z,27.12
2022-07-27T07:55:27.662Z,27.03
2022-07-27T07:57:53.841Z,26.98
2022-07-27T08:00:27.879Z,26.93
2022-07-27T08:03:37.120Z,26.88
2022-07-27T08:06:47.277Z,26.80
2022-07-27T08:09:28.234Z,26.74
2022-07-27T08:11:44.744Z,26.69
2022-07-27T08:13:57.877Z,26.65
2022-07-27T08:16:31.210Z,26.62
2022-07-27T08:19:37.998Z,26.55
2022-07-27T08:22:17.755Z,26.50
2022-07-27T08:24:48.051Z,26.44
2022-07-27T08:27:39.146Z,26.40
2022-07-27T08:29:59.781Z,26.36
2022-07-27T08:32:09.572Z,26.31
2022-07-27T08:34:52.365Z,26.27
2022-07-27T08:37:27.396Z,26.19
2022-07-27T08:40:38.683Z,26.14
2022-07-27T08:43:30.601Z,26.05
2022-07-27T08:46:02.529Z,25.98
2022-07-27T08:48:53.340Z,25.93
2022-07-27T08:51:16.967Z,25.87
2022-07-27T08:53:54.004Z,25.80
2022-07-27T08:56:44.414Z,25.73
2022-07-27T08:59:41.861Z,25.68
2022-07-27T09:02:12.132Z,25.62
2022-07-27T09:04:40.195Z,25.55
2022-07-27T09:07:05.288Z,25.49
2022-07-27T09:09:32.538Z,25.43
2022-07-27T09:12:45.351Z,25.39
2022-07-27T09:15:37.077Z,25.32
2022-07-27T09:18:29.344Z,25.27
2022-07-27T09:21:16.344Z,25.21
2022-07-27T09:23:48.217Z,25.13
2022-07-27T09:26:40.407Z,25.05
2022-07-27T09:29:17.323Z,24.97
2022-07-27T09:31:58.322Z,24.90
2022-07-27T09:34:38.733Z,24.84
2022-07-27T09:37:00.762Z,24.76
2022-07-27T09:39:21.574Z,24.70
2022-07-27T09:41:59.061Z,24.64
2022-07-27T09:44:34.816Z,24.56
2022-07-27T09:47:31.342Z,24.49
2022-07-27T09:50:24.599Z,24.42
2022-07-27T09:53:19.707Z,24.36
2022-07-27T09:56:01.574Z,24.28
2022-07-27T09:58:45.043Z,24.23
2022-07-27T10:01:23.494Z,24.17
2022-07-27T10:04:17.857Z,24.10
2022-07-27T10:07:08.134Z,24.04
2022-07-27T10:10:03.037Z,24.00
2022-07-27T10:12:28.553Z,23.93
2022-07-27T10:14:46.575Z,23.88
2022-07-27T10:17:00.336Z,23.83
2022-07-27T10:19:41.209Z,23.76
2022-07-27T10:22:22.071Z,23.68
2022-07-27T10:25:09.920Z,23.63
2022-07-27T10:27:50.864Z,23.59
2022-07-27T10:30:24.283Z,23.54
2022-07-27T10:33:08.202Z,23.48
2022-07-27T10:35:47.506Z,23.42
2022-07-27T10:38:41.357Z,23.33
2022-07-27T10:41:07.928Z,23.26
2022-07-27T10:44:17.733Z,23.18
2022-07-27T10:47:25.640Z,23.13
2022-07-27T10:49:40.515Z,23.08
2022-07-27T10:52:13.064Z,23.01
2022-07-27T10:55:00.414Z,22.93
2022-07-27T10:57:32.762Z,22.90
2022-07-27T11:00:14.877Z,22.87
2022-07-27T11:03:13.241Z,22.81
2022-07-27T11:06:00.376Z,22.75
2022-07-27T11:09:52.552Z,22.68
2022-07-27T11:11:42.904Z,22.57
2022-07-27T11:14:16.394Z,22.52
2022-07-27T11:16:58.987Z,22.46
2022-07-27T11:19:25.050Z,22.40
2022-07-27T11:22:04.877Z,22.34
2022-07-27T11:24:25.074Z,22.27
2022-07-27T11:26:41.984Z,22.23
2022-07-27T11:28:49.146Z,22.18
2022-07-27T11:31:53.013Z,22.16
2022-07-27T11:34:23.189Z,22.12
2022-07-27T11:37:04.102Z,22.06
2022-07-27T11:39:59.313Z,22.00
2022-07-27T11:42:20.782Z,21.92
2022-07-27T11:44:48.915Z,21.85
2022-07-27T11:47:49.272Z,21.80
2022-07-27T11:50:18.535Z,21.74
2022-07-27T11:52:37.949Z,21.71
2022-07-27T11:55:24.390Z,21.69
2022-07-27T11:58:05.353Z,21.65
2022-07-27T12:00:52.050Z,21.62
2022-07-27T12:03:46.197Z,21.57
2022-07-27T12:06:08.239Z,21.53
2022-07-27T12:08:44.935Z,21.49
2022-07-27T12:11:04.112Z,21.45
2022-07-27T12:13:53.247Z,21.41
2022-07-27T12:16:10.151Z,21.35
2022-07-27T12:18:27.978Z,21.32
2022-07-27T12:21:26.154Z,21.29
2022-07-27T12:24:25.255Z,21.25
2022-07-27T12:26:34.941Z,21.22
2022-07-27T12:29:28.522Z,21.21
2022-07-27T12:31:55.337Z,21.18
2022-07-27T12:34:55.244Z,21.17
2022-07-27T12:37:25.179Z,21.12
2022-07-27T12:40:01.708Z,21.08
2022-07-27T12:43:02.244Z,21.04
2022-07-27T12:45:21.865Z,21.00
2022-07-27T12:48:24.417Z,20.97
2022-07-27T12:51:04.797Z,20.94
2022-07-27T12:56:28.253Z,20.89
2022-07-27T12:59:18.665Z,20.86
2022-07-27T13:02:05.811Z,20.83
2022-07-27T13:04:40.380Z,20.80
2022-07-27T13:07:28.824Z,20.76
2022-07-27T13:10:04.057Z,20.73
2022-07-27T13:12:25.262Z,20.71
2022-07-27T13:14:48.182Z,20.70
2022-07-27T13:17:37.812Z,20.69
2022-07-27T13:20:08.862Z,20.69
2022-07-27T13:22:34.131Z,20.68
2022-07-27T13:24:49.956Z,20.68
2022-07-27T13:27:17.418Z,20.69
2022-07-27T13:29:47.530Z,20.68
2022-07-27T13:32:34.411Z,20.67
2022-07-27T13:34:54.070Z,20.68
2022-07-27T13:37:18.194Z,20.69
2022-07-27T13:39:37.572Z,20.68
2022-07-27T13:42:07.061Z,20.69
2022-07-27T13:45:00.603Z,20.69
2022-07-27T13:46:59.034Z,20.71
2022-07-27T13:50:07.307Z,20.72
2022-07-27T13:52:56.485Z,20.72
2022-07-27T13:55:28.144Z,20.74
2022-07-27T13:58:27.041Z,20.76
2022-07-27T14:00:51.189Z,20.79
2022-07-27T14:03:14.238Z,20.80
2022-07-27T14:05:38.210Z,20.82
2022-07-27T14:08:16.183Z,20.83
2022-07-27T14:10:55.445Z,20.86
2022-07-27T14:13:56.132Z,20.91
2022-07-27T14:16:47.357Z,20.96
2022-07-27T14:19:10.716Z,21.00
2022-07-27T14:21:52.614Z,21.04
2022-07-27T14:24:24.149Z,21.08
2022-07-27T14:26:58.259Z,21.12
2022-07-27T14:29:46.900Z,21.13
2022-07-27T14:32:04.001Z,21.16
2022-07-27T14:34:19.820Z,21.16
2022-07-27T14:36:30.030Z,21.17
2022-07-27T14:38:40.508Z,21.18
2022-07-27T14:41:16.327Z,21.19
2022-07-27T14:44:07.915Z,21.22
2022-07-27T14:46:38.292Z,21.25
2022-07-27T14:49:38.697Z,21.31
2022-07-27T14:52:14.630Z,21.42
2022-07-27T14:54:22.222Z,21.49
2022-07-27T14:56:45.398Z,21.54
2022-07-27T14:59:09.793Z,21.59
2022-07-27T15:01:39.755Z,21.62
2022-07-27T15:03:56.799Z,21.64
2022-07-27T15:06:45.179Z,21.67
2022-07-27T15:09:16.020Z,21.76
2022-07-27T15:12:06.889Z,21.85
2022-07-27T15:14:21.502Z,21.99
2022-07-27T15:17:05.364Z,22.12
2022-07-27T15:19:45.461Z,22.25
2022-07-27T15:22:17.983Z,22.39
2022-07-27T15:24:49.450Z,22.53
2022-07-27T15:27:21.313Z,22.64
2022-07-27T15:29:59.938Z,22.81
2022-07-27T15:32:19.714Z,22.94
2022-07-27T15:34:32.455Z,23.08
2022-07-27T15:37:12.859Z,23.24
2022-07-27T15:40:09.402Z,23.38
2022-07-27T15:43:28.069Z,23.54
2022-07-27T15:46:02.279Z,23.75
2022-07-27T15:48:42.203Z,23.94
2022-07-27T15:51:20.087Z,24.09
2022-07-27T15:54:01.399Z,24.19
2022-07-27T15:56:40.858Z,24.31
2022-07-27T15:59:20.281Z,24.41
2022-07-27T16:01:40.004Z,24.51
2022-07-27T16:04:11.309Z,24.63
2022-07-27T16:07:03.048Z,24.73
2022-07-27T16:09:19.579Z,24.85
2022-07-27T16:12:19.565Z,24.96
2022-07-27T16:15:16.629Z,25.12
2022-07-27T16:18:19.800Z,25.33
2022-07-27T16:21:27.397Z,25.46
2022-07-27T16:23:50.347Z,25.57
2022-07-27T16:26:25.825Z,25.67
2022-07-27T16:29:43.851Z,25.79
2022-07-27T16:32:14.178Z,25.95
2022-07-27T16:34:54.140Z,26.08
2022-07-27T16:37:50.241Z,26.23
2022-07-27T16:41:17.609Z,26.35
2022-07-27T16:44:18.849Z,26.53
2022-07-27T16:47:07.428Z,26.69
2022-07-27T16:49:18.132Z,26.80
2022-07-27T16:51:32.021Z,26.88
2022-07-27T16:53:54.261Z,26.93
2022-07-27T16:56:15.936Z,27.03
2022-07-27T16:59:14.979Z,27.19
2022-07-27T17:02:02.086Z,27.38
2022-07-27T17:04:35.272Z,27.48
2022-07-27T17:07:02.477Z,27.60
2022-07-27T17:09:20.910Z,27.71
2022-07-27T17:11:30.908Z,27.79
2022-07-27T17:14:18.173Z,27.83
2022-07-27T17:16:52.165Z,27.92
2022-07-27T17:19:59.584Z,28.08
2022-07-27T17:22:50.578Z,28.17
2022-07-27T17:25:11.889Z,28.18
2022-07-27T17:27:58.760Z,28.10
2022-07-27T17:30:25.941Z,28.19
2022-07-27T17:33:46.720Z,28.32
2022-07-27T17:36:48.750Z,28.57
2022-07-27T17:39:13.709Z,28.86
2022-07-27T17:41:46.617Z,29.03
2022-07-27T17:44:39.070Z,29.23
2022-07-27T17:47:09.763Z,29.37
2022-07-27T17:50:00.267Z,29.51
2022-07-27T17:52:34.061Z,29.61
2022-07-27T17:54:54.700Z,29.78
2022-07-27T17:57:37.801Z,29.92
2022-07-27T18:00:32.297Z,30.01
2022-07-27T18:03:06.512Z,30.07
2022-07-27T18:05:33.453Z,30.17
2022-07-27T18:08:24.153Z,30.29
2022-07-27T18:10:38.865Z,30.39
2022-07-27T18:13:40.778Z,30.50
2022-07-27T18:16:16.462Z,30.62
2022-07-27T18:19:35.116Z,30.52
2022-07-27T18:22:43.212Z,30.44
2022-07-27T18:25:30.523Z,30.49
2022-07-27T18:28:23.191Z,30.47
2022-07-27T18:30:53.967Z,30.48
2022-07-27T18:33:36.822Z,30.49
2022-07-27T18:35:57.452Z,30.59
2022-07-27T18:38:36.185Z,30.66
2022-07-27T18:41:35.133Z,30.76
2022-07-27T18:44:18.487Z,30.89
2022-07-27T18:47:14.691Z,30.92
2022-07-27T18:50:07.841Z,30.92
2022-07-27T18:52:57.761Z,30.84
2022-07-27T18:55:34.444Z,30.90
2022-07-27T18:57:56.477Z,30.90
2022-07-27T19:00:26.384Z,30.86
2022-07-27T19:02:49.175Z,30.98
2022-07-27T19:06:05.333Z,31.02
2022-07-27T19:08:42.376Z,30.97
2022-07-27T19:11:13.343Z,30.97
2022-07-27T19:14:05.298Z,31.04
2022-07-27T19:16:55.879Z,31.15
2022-07-27T19:20:05.307Z,31.36
2022-07-27T19:22:48.977Z,31.56
2022-07-27T19:25:01.348Z,31.82
2022-07-27T19:28:00.882Z,32.02
2022-07-27T19:30:33.476Z,32.21
2022-07-27T19:32:53.507Z,32.40
2022-07-27T19:35:16.827Z,32.57
2022-07-27T19:37:43.137Z,32.63
2022-07-27T19:40:14.391Z,32.66
2022-07-27T19:43:01.921Z,32.71
2022-07-27T19:45:33.313Z,32.72
2022-07-27T19:48:13.148Z,32.79
2022-07-27T19:50:33.683Z,32.88
2022-07-27T19:53:13.139Z,32.94
2022-07-27T19:55:40.247Z,33.09
2022-07-27T19:57:52.839Z,33.12
2022-07-27T20:00:06.464Z,33.17
2022-07-27T20:02:43.418Z,33.25
2022-07-27T20:05:19.844Z,33.37
2022-07-27T20:08:35.507Z,33.33
2022-07-27T20:11:36.262Z,33.28
2022-07-27T20:14:39.279Z,33.29
2022-07-27T20:17:23.706Z,33.36
2022-07-27T20:20:21.351Z,33.43
2022-07-27T20:22:54.039Z,33.45
2022-07-27T20:25:45.596Z,33.41
2022-07-27T20:27:59.005Z,33.36
2022-07-27T20:30:17.296Z,33.44
2022-07-27T20:33:05.929Z,33.47
2022-07-27T20:35:58.388Z,33.47
2022-07-27T20:38:12.169Z,33.44
2022-07-27T20:40:45.061Z,33.50
2022-07-27T20:43:08.326Z,33.54
2022-07-27T20:45:24.858Z,33.56
2022-07-27T20:48:03.574Z,33.65
2022-07-27T20:51:00.899Z,33.79
2022-07-27T20:53:35.760Z,33.90
2022-07-27T20:56:05.350Z,34.03
2022-07-27T20:58:35.923Z,34.13
2022-07-27T21:01:16.179Z,34.27
2022-07-27T21:03:38.119Z,34.33
2022-07-27T21:06:25.007Z,34.37
2022-07-27T21:09:05.992Z,34.44
2022-07-27T21:11:50.518Z,34.51
2022-07-27T21:14:08.745Z,34.60
2022-07-27T21:16:49.871Z,34.68
2022-07-27T21:19:26.931Z,34.78
2022-07-27T21:22:08.160Z,34.84
2022-07-27T21:24:57.239Z,34.89
2022-07-27T21:27:15.115Z,34.97
2022-07-27T21:29:41.552Z,35.04
2022-07-27T21:32:06.382Z,35.02
2022-07-27T21:35:06.852Z,35.05
2022-07-27T21:37:21.023Z,35.12
2022-07-27T21:40:09.020Z,35.12
2022-07-27T21:42:41.437Z,35.07
2022-07-27T21:45:39.529Z,35.05
2022-07-27T21:48:33.344Z,35.13
2022-07-27T21:50:54.921Z,35.17
2022-07-27T21:53:24.308Z,35.22
2022-07-27T21:56:06.881Z,35.24
2022-07-27T21:58:51.659Z,35.29
2022-07-27T22:01:31.938Z,35.31
2022-07-27T22:04:13.339Z,35.39
2022-07-27T22:06:49.668Z,35.50
2022-07-27T22:09:06.987Z,35.55
2022-07-27T22:12:08.857Z,35.58
2022-07-27T22:14:32.933Z,35.60
2022-07-27T22:17:07.023Z,35.67
2022-07-27T22:19:20.468Z,35.71
2022-07-27T22:21:57.020Z,35.72
2022-07-27T22:24:54.688Z,35.67
2022-07-27T22:27:13.991Z,35.62
2022-07-27T22:29:59.565Z,35.61
2022-07-27T22:32:53.052Z,35.60
2022-07-27T22:35:19.052Z,35.57
2022-07-27T22:37:43.000Z,35.59
2022-07-27T22:40:06.911Z,35.61
2022-07-27T22:42:40.017Z,35.66
2022-07-27T22:45:42.078Z,35.77
2022-07-27T22:48:14.404Z,35.92
2022-07-27T22:50:27.677Z,35.93
2022-07-27T22:52:54.803Z,35.91
2022-07-27T22:56:00.180Z,35.83
2022-07-27T22:58:38.678Z,35.71
2022-07-27T23:01:06.988Z,35.61
2022-07-27T23:03:39.737Z,35.57
2022-07-27T23:06:31.435Z,35.60
2022-07-27T23:08:51.823Z,35.65
2022-07-27T23:11:59.844Z,35.66
2022-07-27T23:15:06.942Z,35.64
2022-07-27T23:17:44.620Z,35.70
2022-07-27T23:20:26.945Z,35.75
2022-07-27T23:23:35.216Z,35.82
2022-07-27T23:26:16.220Z,35.89
2022-07-27T23:28:54.858Z,35.93
2022-07-27T23:32:06.407Z,35.95
2022-07-27T23:34:36.847Z,35.99
2022-07-27T23:37:18.358Z,35.98
2022-07-27T23:39:44.377Z,35.95
2022-07-27T23:42:17.259Z,35.95
2022-07-27T23:44:53.397Z,35.97
2022-07-27T23:47:24.443Z,35.99
2022-07-27T23:50:00.457Z,36.01
2022-07-27T23:53:16.620Z,36.07
2022-07-27T23:56:03.437Z,36.14
2022-07-27T23:59:03.532Z,36.19
